sensor_id;sensor_type;location;lat;lon;timestamp;P1;durP1;ratioP1;P2;durP2;ratioP2
17937;SDS011;16051;53.024;8.630;2023-03-01T00:02:00;6.77;;;4.80;;
17937;SDS011;16051;53.024;8.630;2023-03-01T00:06:02;6.67;;;4.57;;
17937;SDS011;16051;53.024;8.630;2023-03-01T00:10:07;6.20;;;4.80;;
17937;SDS011;16051;53.024;8.630;2023-03-01T00:14:11;6.73;;;5.10;;
17937;SDS011;16051;53.024;8.630;2023-03-01T00:18:15;6.67;;;4.83;;
17937;SDS011;16051;53.024;8.630;2023-03-01T00:22:17;6.80;;;4.10;;
17937;SDS011;16051;53.024;8.630;2023-03-01T00:26:19;6.27;;;4.73;;
17937;SDS011;16051;53.024;8.630;2023-03-01T00:30:23;5.63;;;4.73;;
17937;SDS011;16051;53.024;8.630;2023-03-01T00:34:27;6.10;;;4.80;;
17937;SDS011;16051;53.024;8.630;2023-03-01T00:38:29;7.37;;;5.07;;
17937;SDS011;16051;53.024;8.630;2023-03-01T00:42:31;6.67;;;5.03;;
17937;SDS011;16051;53.024;8.630;2023-03-01T00:46:33;6.80;;;5.17;;
17937;SDS011;16051;53.024;8.630;2023-03-01T00:50:55;8.73;;;4.83;;
17937;SDS011;16051;53.024;8.630;2023-03-01T00:54:57;9.57;;;6.17;;
17937;SDS011;16051;53.024;8.630;2023-03-01T00:59:00;7.17;;;6.03;;
17937;SDS011;16051;53.024;8.630;2023-03-01T01:03:07;8.53;;;5.87;;
17937;SDS011;16051;53.024;8.630;2023-03-01T01:07:11;7.37;;;6.07;;
17937;SDS011;16051;53.024;8.630;2023-03-01T01:11:14;7.00;;;6.30;;
17937;SDS011;16051;53.024;8.630;2023-03-01T01:15:17;9.73;;;6.33;;
17937;SDS011;16051;53.024;8.630;2023-03-01T01:19:19;8.50;;;6.33;;
17937;SDS011;16051;53.024;8.630;2023-03-01T01:23:30;8.73;;;7.43;;
17937;SDS011;16051;53.024;8.630;2023-03-01T01:27:33;9.70;;;7.60;;
17937;SDS011;16051;53.024;8.630;2023-03-01T01:31:36;12.63;;;7.60;;
17937;SDS011;16051;53.024;8.630;2023-03-01T01:35:40;11.63;;;7.67;;
17937;SDS011;16051;53.024;8.630;2023-03-01T01:39:43;9.93;;;7.47;;
17937;SDS011;16051;53.024;8.630;2023-03-01T01:48:19;8.07;;;6.30;;
17937;SDS011;16051;53.024;8.630;2023-03-01T01:52:25;6.77;;;5.57;;
17937;SDS011;16051;53.024;8.630;2023-03-01T01:56:32;7.33;;;5.87;;
17937;SDS011;16051;53.024;8.630;2023-03-01T02:00:34;7.90;;;4.87;;
17937;SDS011;16051;53.024;8.630;2023-03-01T02:04:38;13.73;;;7.53;;
17937;SDS011;16051;53.024;8.630;2023-03-01T02:08:41;11.47;;;7.67;;
17937;SDS011;16051;53.024;8.630;2023-03-01T02:12:48;8.07;;;6.43;;
17937;SDS011;16051;53.024;8.630;2023-03-01T02:16:51;7.07;;;5.97;;
17937;SDS011;16051;53.024;8.630;2023-03-01T02:21:05;11.37;;;7.93;;
17937;SDS011;16051;53.024;8.630;2023-03-01T02:25:29;11.63;;;7.73;;
17937;SDS011;16051;53.024;8.630;2023-03-01T02:29:40;6.93;;;5.67;;
17937;SDS011;16051;53.024;8.630;2023-03-01T02:33:44;6.70;;;5.50;;
17937;SDS011;16051;53.024;8.630;2023-03-01T02:37:59;6.80;;;5.43;;
17937;SDS011;16051;53.024;8.630;2023-03-01T02:42:03;6.87;;;5.53;;
17937;SDS011;16051;53.024;8.630;2023-03-01T02:46:13;6.60;;;5.80;;
17937;SDS011;16051;53.024;8.630;2023-03-01T02:50:22;8.90;;;5.80;;
17937;SDS011;16051;53.024;8.630;2023-03-01T02:54:56;8.33;;;5.87;;
17937;SDS011;16051;53.024;8.630;2023-03-01T02:59:04;7.07;;;5.43;;
17937;SDS011;16051;53.024;8.630;2023-03-01T03:03:08;9.27;;;5.90;;
17937;SDS011;16051;53.024;8.630;2023-03-01T03:07:11;8.60;;;5.97;;
17937;SDS011;16051;53.024;8.630;2023-03-01T03:11:14;7.57;;;6.17;;
17937;SDS011;16051;53.024;8.630;2023-03-01T03:15:16;9.03;;;6.50;;
17937;SDS011;16051;53.024;8.630;2023-03-01T03:19:20;9.73;;;7.23;;
17937;SDS011;16051;53.024;8.630;2023-03-01T03:23:22;8.53;;;7.27;;
17937;SDS011;16051;53.024;8.630;2023-03-01T03:27:24;9.43;;;7.33;;
17937;SDS011;16051;53.024;8.630;2023-03-01T03:31:27;9.30;;;7.50;;
17937;SDS011;16051;53.024;8.630;2023-03-01T03:35:32;9.63;;;7.63;;
17937;SDS011;16051;53.024;8.630;2023-03-01T03:39:39;11.70;;;8.00;;
17937;SDS011;16051;53.024;8.630;2023-03-01T03:43:41;11.47;;;7.80;;
17937;SDS011;16051;53.024;8.630;2023-03-01T03:47:44;12.17;;;7.77;;
17937;SDS011;16051;53.024;8.630;2023-03-01T03:56:30;11.67;;;7.53;;
17937;SDS011;16051;53.024;8.630;2023-03-01T04:00:33;8.13;;;6.80;;
17937;SDS011;16051;53.024;8.630;2023-03-01T04:04:37;9.07;;;6.70;;
17937;SDS011;16051;53.024;8.630;2023-03-01T04:08:40;10.53;;;7.57;;
17937;SDS011;16051;53.024;8.630;2023-03-01T04:12:42;12.37;;;8.20;;
17937;SDS011;16051;53.024;8.630;2023-03-01T04:16:45;11.67;;;7.93;;
17937;SDS011;16051;53.024;8.630;2023-03-01T04:25:00;13.83;;;9.03;;
17937;SDS011;16051;53.024;8.630;2023-03-01T04:29:04;12.97;;;8.83;;
17937;SDS011;16051;53.024;8.630;2023-03-01T04:33:07;11.17;;;8.63;;
17937;SDS011;16051;53.024;8.630;2023-03-01T04:37:11;11.50;;;8.70;;
17937;SDS011;16051;53.024;8.630;2023-03-01T04:45:40;11.90;;;8.53;;
17937;SDS011;16051;53.024;8.630;2023-03-01T04:49:42;12.63;;;8.40;;
17937;SDS011;16051;53.024;8.630;2023-03-01T04:53:44;11.43;;;8.40;;
17937;SDS011;16051;53.024;8.630;2023-03-01T04:57:48;10.63;;;8.40;;
17937;SDS011;16051;53.024;8.630;2023-03-01T05:01:50;11.00;;;7.97;;
17937;SDS011;16051;53.024;8.630;2023-03-01T05:05:58;11.83;;;8.50;;
17937;SDS011;16051;53.024;8.630;2023-03-01T05:10:00;11.53;;;8.60;;
17937;SDS011;16051;53.024;8.630;2023-03-01T05:14:04;15.07;;;9.20;;
17937;SDS011;16051;53.024;8.630;2023-03-01T05:18:22;12.63;;;8.37;;
17937;SDS011;16051;53.024;8.630;2023-03-01T05:22:25;12.27;;;7.87;;
17937;SDS011;16051;53.024;8.630;2023-03-01T05:26:27;9.90;;;7.97;;
17937;SDS011;16051;53.024;8.630;2023-03-01T05:30:31;13.03;;;8.67;;
17937;SDS011;16051;53.024;8.630;2023-03-01T05:34:35;13.43;;;8.00;;
17937;SDS011;16051;53.024;8.630;2023-03-01T05:38:38;14.97;;;8.67;;
17937;SDS011;16051;53.024;8.630;2023-03-01T05:42:52;9.47;;;7.73;;
17937;SDS011;16051;53.024;8.630;2023-03-01T05:46:58;11.77;;;8.07;;
17937;SDS011;16051;53.024;8.630;2023-03-01T05:51:00;13.93;;;8.17;;
17937;SDS011;16051;53.024;8.630;2023-03-01T05:55:02;10.60;;;7.60;;
17937;SDS011;16051;53.024;8.630;2023-03-01T05:59:08;13.03;;;8.37;;
17937;SDS011;16051;53.024;8.630;2023-03-01T06:03:12;11.27;;;8.67;;
17937;SDS011;16051;53.024;8.630;2023-03-01T06:07:16;12.37;;;8.20;;
17937;SDS011;16051;53.024;8.630;2023-03-01T06:11:18;10.13;;;8.30;;
17937;SDS011;16051;53.024;8.630;2023-03-01T06:15:21;9.43;;;6.93;;
17937;SDS011;16051;53.024;8.630;2023-03-01T06:19:25;12.30;;;7.80;;
17937;SDS011;16051;53.024;8.630;2023-03-01T06:23:44;12.87;;;8.63;;
17937;SDS011;16051;53.024;8.630;2023-03-01T06:27:46;10.80;;;7.63;;
17937;SDS011;16051;53.024;8.630;2023-03-01T06:31:49;8.47;;;7.40;;
17937;SDS011;16051;53.024;8.630;2023-03-01T06:35:55;10.53;;;7.17;;
17937;SDS011;16051;53.024;8.630;2023-03-01T06:39:57;10.13;;;6.70;;
17937;SDS011;16051;53.024;8.630;2023-03-01T06:44:05;10.20;;;6.83;;
17937;SDS011;16051;53.024;8.630;2023-03-01T06:48:07;8.67;;;6.47;;
17937;SDS011;16051;53.024;8.630;2023-03-01T06:52:10;11.10;;;6.93;;
17937;SDS011;16051;53.024;8.630;2023-03-01T06:56:12;8.93;;;6.23;;
17937;SDS011;16051;53.024;8.630;2023-03-01T07:00:15;9.27;;;6.47;;
17937;SDS011;16051;53.024;8.630;2023-03-01T07:04:19;10.03;;;6.47;;
17937;SDS011;16051;53.024;8.630;2023-03-01T07:08:24;7.60;;;5.67;;
17937;SDS011;16051;53.024;8.630;2023-03-01T07:12:27;8.43;;;5.73;;
17937;SDS011;16051;53.024;8.630;2023-03-01T07:16:29;6.67;;;5.53;;
17937;SDS011;16051;53.024;8.630;2023-03-01T07:20:48;8.20;;;5.47;;
17937;SDS011;16051;53.024;8.630;2023-03-01T07:24:52;7.87;;;6.27;;
17937;SDS011;16051;53.024;8.630;2023-03-01T07:28:54;10.17;;;6.60;;
17937;SDS011;16051;53.024;8.630;2023-03-01T07:37:08;8.07;;;6.57;;
17937;SDS011;16051;53.024;8.630;2023-03-01T07:41:12;8.23;;;6.20;;
17937;SDS011;16051;53.024;8.630;2023-03-01T07:45:14;9.03;;;6.80;;
17937;SDS011;16051;53.024;8.630;2023-03-01T07:49:16;7.30;;;6.23;;
17937;SDS011;16051;53.024;8.630;2023-03-01T07:53:19;10.07;;;7.13;;
17937;SDS011;16051;53.024;8.630;2023-03-01T07:57:22;12.43;;;8.23;;
17937;SDS011;16051;53.024;8.630;2023-03-01T08:01:25;10.77;;;7.60;;
17937;SDS011;16051;53.024;8.630;2023-03-01T08:05:27;13.17;;;7.77;;
17937;SDS011;16051;53.024;8.630;2023-03-01T08:09:30;10.20;;;7.70;;
17937;SDS011;16051;53.024;8.630;2023-03-01T08:13:34;9.23;;;7.60;;
17937;SDS011;16051;53.024;8.630;2023-03-01T08:17:36;8.93;;;6.83;;
17937;SDS011;16051;53.024;8.630;2023-03-01T08:21:38;10.50;;;7.20;;
17937;SDS011;16051;53.024;8.630;2023-03-01T08:25:40;10.50;;;7.47;;
17937;SDS011;16051;53.024;8.630;2023-03-01T08:29:44;10.43;;;7.20;;
17937;SDS011;16051;53.024;8.630;2023-03-01T08:33:46;12.80;;;7.97;;
17937;SDS011;16051;53.024;8.630;2023-03-01T08:38:05;11.27;;;8.03;;
17937;SDS011;16051;53.024;8.630;2023-03-01T08:42:07;11.80;;;7.40;;
17937;SDS011;16051;53.024;8.630;2023-03-01T08:46:11;12.20;;;8.17;;
17937;SDS011;16051;53.024;8.630;2023-03-01T08:50:15;12.00;;;8.63;;
17937;SDS011;16051;53.024;8.630;2023-03-01T08:54:18;17.03;;;9.33;;
17937;SDS011;16051;53.024;8.630;2023-03-01T08:58:23;13.67;;;9.03;;
17937;SDS011;16051;53.024;8.630;2023-03-01T09:02:26;13.33;;;9.47;;
17937;SDS011;16051;53.024;8.630;2023-03-01T09:06:29;14.30;;;8.30;;
17937;SDS011;16051;53.024;8.630;2023-03-01T09:10:36;11.43;;;8.07;;
17937;SDS011;16051;53.024;8.630;2023-03-01T09:14:39;14.07;;;8.33;;
17937;SDS011;16051;53.024;8.630;2023-03-01T09:18:43;16.50;;;8.40;;
17937;SDS011;16051;53.024;8.630;2023-03-01T09:23:08;14.10;;;8.93;;
17937;SDS011;16051;53.024;8.630;2023-03-01T09:27:10;10.13;;;6.60;;
17937;SDS011;16051;53.024;8.630;2023-03-01T09:31:15;9.83;;;6.83;;
17937;SDS011;16051;53.024;8.630;2023-03-01T09:35:20;9.07;;;6.60;;
17937;SDS011;16051;53.024;8.630;2023-03-01T09:39:30;8.10;;;5.50;;
17937;SDS011;16051;53.024;8.630;2023-03-01T09:43:34;7.50;;;5.10;;
17937;SDS011;16051;53.024;8.630;2023-03-01T09:47:46;8.23;;;5.57;;
17937;SDS011;16051;53.024;8.630;2023-03-01T09:51:53;7.47;;;5.07;;
17937;SDS011;16051;53.024;8.630;2023-03-01T09:56:10;5.33;;;4.03;;
17937;SDS011;16051;53.024;8.630;2023-03-01T10:00:24;5.30;;;4.67;;
17937;SDS011;16051;53.024;8.630;2023-03-01T10:04:40;6.03;;;4.33;;
17937;SDS011;16051;53.024;8.630;2023-03-01T10:08:50;3.60;;;2.77;;
17937;SDS011;16051;53.024;8.630;2023-03-01T10:13:09;5.03;;;3.03;;
17937;SDS011;16051;53.024;8.630;2023-03-01T10:17:24;5.90;;;3.40;;
17937;SDS011;16051;53.024;8.630;2023-03-01T10:21:46;5.77;;;3.77;;
17937;SDS011;16051;53.024;8.630;2023-03-01T10:30:32;7.63;;;4.70;;
17937;SDS011;16051;53.024;8.630;2023-03-01T10:34:39;4.73;;;3.80;;
17937;SDS011;16051;53.024;8.630;2023-03-01T10:38:48;8.97;;;4.63;;
17937;SDS011;16051;53.024;8.630;2023-03-01T10:42:58;8.10;;;4.87;;
17937;SDS011;16051;53.024;8.630;2023-03-01T10:47:04;8.40;;;5.53;;
17937;SDS011;16051;53.024;8.630;2023-03-01T10:51:15;15.40;;;6.47;;
17937;SDS011;16051;53.024;8.630;2023-03-01T10:55:24;8.43;;;6.13;;
17937;SDS011;16051;53.024;8.630;2023-03-01T10:59:34;10.47;;;6.80;;
17937;SDS011;16051;53.024;8.630;2023-03-01T11:03:39;10.47;;;6.90;;
17937;SDS011;16051;53.024;8.630;2023-03-01T11:11:59;7.37;;;5.30;;
17937;SDS011;16051;53.024;8.630;2023-03-01T11:16:04;10.17;;;5.90;;
17937;SDS011;16051;53.024;8.630;2023-03-01T11:20:15;8.80;;;6.20;;
17937;SDS011;16051;53.024;8.630;2023-03-01T11:24:29;10.60;;;6.07;;
17937;SDS011;16051;53.024;8.630;2023-03-01T11:28:43;7.50;;;6.37;;
17937;SDS011;16051;53.024;8.630;2023-03-01T11:32:57;7.97;;;5.93;;
17937;SDS011;16051;53.024;8.630;2023-03-01T11:37:28;8.00;;;6.43;;
17937;SDS011;16051;53.024;8.630;2023-03-01T11:41:36;7.80;;;5.90;;
17937;SDS011;16051;53.024;8.630;2023-03-01T11:45:45;9.00;;;6.43;;
17937;SDS011;16051;53.024;8.630;2023-03-01T11:50:27;7.53;;;5.83;;
17937;SDS011;16051;53.024;8.630;2023-03-01T11:54:42;8.13;;;6.80;;
17937;SDS011;16051;53.024;8.630;2023-03-01T11:59:11;8.20;;;7.40;;
17937;SDS011;16051;53.024;8.630;2023-03-01T12:03:48;10.13;;;6.43;;
17937;SDS011;16051;53.024;8.630;2023-03-01T12:08:19;7.47;;;6.27;;
17937;SDS011;16051;53.024;8.630;2023-03-01T12:12:33;8.23;;;5.80;;
17937;SDS011;16051;53.024;8.630;2023-03-01T12:16:58;8.83;;;6.73;;
17937;SDS011;16051;53.024;8.630;2023-03-01T12:21:27;8.83;;;6.93;;
17937;SDS011;16051;53.024;8.630;2023-03-01T12:25:50;9.43;;;6.73;;
17937;SDS011;16051;53.024;8.630;2023-03-01T12:30:01;8.00;;;6.40;;
17937;SDS011;16051;53.024;8.630;2023-03-01T12:34:25;10.10;;;6.97;;
17937;SDS011;16051;53.024;8.630;2023-03-01T12:38:48;10.67;;;7.57;;
17937;SDS011;16051;53.024;8.630;2023-03-01T12:43:10;7.97;;;6.83;;
17937;SDS011;16051;53.024;8.630;2023-03-01T12:47:32;8.73;;;7.73;;
17937;SDS011;16051;53.024;8.630;2023-03-01T12:51:54;9.57;;;7.27;;
17937;SDS011;16051;53.024;8.630;2023-03-01T12:56:02;10.23;;;8.40;;
17937;SDS011;16051;53.024;8.630;2023-03-01T13:00:17;9.77;;;8.73;;
17937;SDS011;16051;53.024;8.630;2023-03-01T13:04:49;9.13;;;7.87;;
17937;SDS011;16051;53.024;8.630;2023-03-01T13:09:11;8.53;;;7.37;;
17937;SDS011;16051;53.024;8.630;2023-03-01T13:13:25;7.90;;;7.10;;
17937;SDS011;16051;53.024;8.630;2023-03-01T13:17:32;9.10;;;7.87;;
17937;SDS011;16051;53.024;8.630;2023-03-01T13:21:45;7.97;;;6.70;;
17937;SDS011;16051;53.024;8.630;2023-03-01T13:26:06;9.07;;;7.13;;
17937;SDS011;16051;53.024;8.630;2023-03-01T13:34:48;9.07;;;6.60;;
17937;SDS011;16051;53.024;8.630;2023-03-01T13:39:02;8.43;;;6.90;;
17937;SDS011;16051;53.024;8.630;2023-03-01T13:43:28;7.73;;;6.23;;
17937;SDS011;16051;53.024;8.630;2023-03-01T13:47:33;8.27;;;6.80;;
17937;SDS011;16051;53.024;8.630;2023-03-01T13:51:38;8.13;;;6.80;;
17937;SDS011;16051;53.024;8.630;2023-03-01T13:55:41;9.47;;;7.50;;
17937;SDS011;16051;53.024;8.630;2023-03-01T13:59:47;7.33;;;6.50;;
17937;SDS011;16051;53.024;8.630;2023-03-01T14:03:49;9.57;;;7.30;;
17937;SDS011;16051;53.024;8.630;2023-03-01T14:07:53;8.83;;;7.53;;
17937;SDS011;16051;53.024;8.630;2023-03-01T14:16:30;9.90;;;7.30;;
17937;SDS011;16051;53.024;8.630;2023-03-01T14:20:58;8.43;;;6.60;;
17937;SDS011;16051;53.024;8.630;2023-03-01T14:25:04;7.20;;;6.50;;
17937;SDS011;16051;53.024;8.630;2023-03-01T14:29:23;8.53;;;7.00;;
17937;SDS011;16051;53.024;8.630;2023-03-01T14:33:35;8.00;;;6.27;;
17937;SDS011;16051;53.024;8.630;2023-03-01T14:37:39;9.00;;;7.10;;
17937;SDS011;16051;53.024;8.630;2023-03-01T14:46:19;9.07;;;7.30;;
17937;SDS011;16051;53.024;8.630;2023-03-01T14:50:25;9.27;;;8.37;;
17937;SDS011;16051;53.024;8.630;2023-03-01T14:54:39;8.30;;;7.00;;
17937;SDS011;16051;53.024;8.630;2023-03-01T14:58:45;8.80;;;6.63;;
17937;SDS011;16051;53.024;8.630;2023-03-01T15:03:08;8.07;;;6.30;;
17937;SDS011;16051;53.024;8.630;2023-03-01T15:07:18;8.63;;;7.20;;
17937;SDS011;16051;53.024;8.630;2023-03-01T15:11:23;8.90;;;7.00;;
17937;SDS011;16051;53.024;8.630;2023-03-01T15:15:33;8.47;;;6.97;;
17937;SDS011;16051;53.024;8.630;2023-03-01T15:24:15;10.40;;;8.50;;
17937;SDS011;16051;53.024;8.630;2023-03-01T15:28:25;9.50;;;8.20;;
17937;SDS011;16051;53.024;8.630;2023-03-01T15:32:32;9.30;;;7.80;;
17937;SDS011;16051;53.024;8.630;2023-03-01T15:36:40;10.43;;;8.63;;
17937;SDS011;16051;53.024;8.630;2023-03-01T15:40:48;10.23;;;7.87;;
17937;SDS011;16051;53.024;8.630;2023-03-01T15:45:10;9.57;;;8.20;;
17937;SDS011;16051;53.024;8.630;2023-03-01T15:49:34;9.93;;;7.73;;
17937;SDS011;16051;53.024;8.630;2023-03-01T15:53:40;10.60;;;8.33;;
17937;SDS011;16051;53.024;8.630;2023-03-01T15:57:59;10.40;;;8.43;;
17937;SDS011;16051;53.024;8.630;2023-03-01T16:02:07;18.13;;;10.77;;
17937;SDS011;16051;53.024;8.630;2023-03-01T16:06:15;13.47;;;10.47;;
17937;SDS011;16051;53.024;8.630;2023-03-01T16:10:17;14.17;;;10.20;;
17937;SDS011;16051;53.024;8.630;2023-03-01T16:14:20;14.10;;;11.17;;
17937;SDS011;16051;53.024;8.630;2023-03-01T16:18:22;15.27;;;11.13;;
17937;SDS011;16051;53.024;8.630;2023-03-01T16:26:55;13.13;;;9.77;;
17937;SDS011;16051;53.024;8.630;2023-03-01T16:30:57;18.67;;;10.87;;
17937;SDS011;16051;53.024;8.630;2023-03-01T16:35:01;16.50;;;11.17;;
17937;SDS011;16051;53.024;8.630;2023-03-01T16:39:05;16.80;;;11.03;;
17937;SDS011;16051;53.024;8.630;2023-03-01T16:43:07;14.67;;;10.83;;
17937;SDS011;16051;53.024;8.630;2023-03-01T16:47:11;15.10;;;11.03;;
17937;SDS011;16051;53.024;8.630;2023-03-01T16:51:13;18.07;;;11.67;;
17937;SDS011;16051;53.024;8.630;2023-03-01T16:55:17;15.73;;;11.50;;
17937;SDS011;16051;53.024;8.630;2023-03-01T16:59:35;19.30;;;12.23;;
17937;SDS011;16051;53.024;8.630;2023-03-01T17:03:38;15.97;;;11.43;;
17937;SDS011;16051;53.024;8.630;2023-03-01T17:07:41;19.40;;;12.00;;
17937;SDS011;16051;53.024;8.630;2023-03-01T17:16:00;19.10;;;11.97;;
17937;SDS011;16051;53.024;8.630;2023-03-01T17:20:06;17.63;;;11.43;;
17937;SDS011;16051;53.024;8.630;2023-03-01T17:28:55;18.17;;;12.17;;
17937;SDS011;16051;53.024;8.630;2023-03-01T17:33:07;18.67;;;13.63;;
17937;SDS011;16051;53.024;8.630;2023-03-01T17:37:09;43.47;;;24.67;;
17937;SDS011;16051;53.024;8.630;2023-03-01T17:41:11;25.67;;;16.13;;
17937;SDS011;16051;53.024;8.630;2023-03-01T17:45:18;23.67;;;14.50;;
17937;SDS011;16051;53.024;8.630;2023-03-01T17:49:20;31.83;;;18.13;;
17937;SDS011;16051;53.024;8.630;2023-03-01T17:53:25;23.57;;;16.27;;
17937;SDS011;16051;53.024;8.630;2023-03-01T17:57:27;19.00;;;12.37;;
17937;SDS011;16051;53.024;8.630;2023-03-01T18:01:31;23.00;;;14.03;;
17937;SDS011;16051;53.024;8.630;2023-03-01T18:05:35;19.47;;;13.63;;
17937;SDS011;16051;53.024;8.630;2023-03-01T18:09:38;20.80;;;13.57;;
17937;SDS011;16051;53.024;8.630;2023-03-01T18:13:47;20.43;;;13.40;;
17937;SDS011;16051;53.024;8.630;2023-03-01T18:17:54;18.60;;;13.40;;
17937;SDS011;16051;53.024;8.630;2023-03-01T18:21:59;19.63;;;13.00;;
17937;SDS011;16051;53.024;8.630;2023-03-01T18:26:03;21.07;;;14.17;;
17937;SDS011;16051;53.024;8.630;2023-03-01T18:34:25;20.73;;;14.67;;
17937;SDS011;16051;53.024;8.630;2023-03-01T18:38:28;22.53;;;14.93;;
17937;SDS011;16051;53.024;8.630;2023-03-01T18:42:30;22.67;;;15.60;;
17937;SDS011;16051;53.024;8.630;2023-03-01T18:46:32;22.53;;;15.27;;
17937;SDS011;16051;53.024;8.630;2023-03-01T18:50:37;25.73;;;15.53;;
17937;SDS011;16051;53.024;8.630;2023-03-01T18:54:39;22.83;;;15.00;;
17937;SDS011;16051;53.024;8.630;2023-03-01T18:58:41;28.07;;;16.33;;
17937;SDS011;16051;53.024;8.630;2023-03-01T19:02:44;22.17;;;14.77;;
17937;SDS011;16051;53.024;8.630;2023-03-01T19:06:47;21.57;;;14.20;;
17937;SDS011;16051;53.024;8.630;2023-03-01T19:10:57;24.03;;;15.07;;
17937;SDS011;16051;53.024;8.630;2023-03-01T19:15:02;25.87;;;14.37;;
17937;SDS011;16051;53.024;8.630;2023-03-01T19:19:08;24.43;;;13.63;;
17937;SDS011;16051;53.024;8.630;2023-03-01T19:23:12;29.23;;;15.83;;
17937;SDS011;16051;53.024;8.630;2023-03-01T19:27:15;24.90;;;14.57;;
17937;SDS011;16051;53.024;8.630;2023-03-01T19:31:18;23.83;;;13.80;;
17937;SDS011;16051;53.024;8.630;2023-03-01T19:35:24;24.23;;;14.40;;
17937;SDS011;16051;53.024;8.630;2023-03-01T19:44:02;28.07;;;16.43;;
17937;SDS011;16051;53.024;8.630;2023-03-01T19:48:05;26.80;;;14.53;;
17937;SDS011;16051;53.024;8.630;2023-03-01T19:52:07;31.70;;;17.13;;
17937;SDS011;16051;53.024;8.630;2023-03-01T19:56:28;31.60;;;16.90;;
17937;SDS011;16051;53.024;8.630;2023-03-01T20:00:30;38.30;;;18.20;;
17937;SDS011;16051;53.024;8.630;2023-03-01T20:04:32;44.67;;;20.97;;
17937;SDS011;16051;53.024;8.630;2023-03-01T20:08:34;42.10;;;19.20;;
17937;SDS011;16051;53.024;8.630;2023-03-01T20:12:39;40.23;;;20.73;;
17937;SDS011;16051;53.024;8.630;2023-03-01T20:16:41;39.37;;;20.90;;
17937;SDS011;16051;53.024;8.630;2023-03-01T20:20:47;44.00;;;20.37;;
17937;SDS011;16051;53.024;8.630;2023-03-01T20:24:49;43.03;;;20.03;;
17937;SDS011;16051;53.024;8.630;2023-03-01T20:28:54;36.33;;;19.67;;
17937;SDS011;16051;53.024;8.630;2023-03-01T20:32:59;38.23;;;18.47;;
17937;SDS011;16051;53.024;8.630;2023-03-01T20:37:02;40.37;;;19.67;;
17937;SDS011;16051;53.024;8.630;2023-03-01T20:41:05;37.60;;;18.57;;
17937;SDS011;16051;53.024;8.630;2023-03-01T20:45:11;37.43;;;18.47;;
17937;SDS011;16051;53.024;8.630;2023-03-01T20:49:13;34.03;;;17.93;;
17937;SDS011;16051;53.024;8.630;2023-03-01T20:53:15;32.80;;;16.23;;
17937;SDS011;16051;53.024;8.630;2023-03-01T21:01:55;29.30;;;15.97;;
17937;SDS011;16051;53.024;8.630;2023-03-01T21:05:57;26.83;;;15.67;;
17937;SDS011;16051;53.024;8.630;2023-03-01T21:10:09;29.57;;;15.87;;
17937;SDS011;16051;53.024;8.630;2023-03-01T21:14:11;32.10;;;16.73;;
17937;SDS011;16051;53.024;8.630;2023-03-01T21:22:20;28.17;;;15.33;;
17937;SDS011;16051;53.024;8.630;2023-03-01T21:26:23;28.23;;;15.00;;
17937;SDS011;16051;53.024;8.630;2023-03-01T21:30:27;26.13;;;15.23;;
17937;SDS011;16051;53.024;8.630;2023-03-01T21:34:33;28.87;;;16.70;;
17937;SDS011;16051;53.024;8.630;2023-03-01T21:38:37;25.60;;;14.77;;
17937;SDS011;16051;53.024;8.630;2023-03-01T21:42:42;29.37;;;15.10;;
17937;SDS011;16051;53.024;8.630;2023-03-01T21:46:44;24.17;;;14.70;;
17937;SDS011;16051;53.024;8.630;2023-03-01T21:50:54;26.90;;;15.80;;
17937;SDS011;16051;53.024;8.630;2023-03-01T21:54:58;26.43;;;15.53;;
17937;SDS011;16051;53.024;8.630;2023-03-01T21:59:06;25.63;;;15.90;;
17937;SDS011;16051;53.024;8.630;2023-03-01T22:03:12;23.83;;;15.30;;
17937;SDS011;16051;53.024;8.630;2023-03-01T22:07:16;28.17;;;16.47;;
17937;SDS011;16051;53.024;8.630;2023-03-01T22:11:18;24.83;;;15.80;;
17937;SDS011;16051;53.024;8.630;2023-03-01T22:19:54;23.47;;;14.63;;
17937;SDS011;16051;53.024;8.630;2023-03-01T22:23:58;21.30;;;13.00;;
17937;SDS011;16051;53.024;8.630;2023-03-01T22:28:13;23.37;;;15.30;;
17937;SDS011;16051;53.024;8.630;2023-03-01T22:32:15;25.57;;;16.17;;
17937;SDS011;16051;53.024;8.630;2023-03-01T22:36:17;24.20;;;14.90;;
17937;SDS011;16051;53.024;8.630;2023-03-01T22:40:22;28.73;;;16.77;;
17937;SDS011;16051;53.024;8.630;2023-03-01T22:44:24;24.27;;;14.97;;
17937;SDS011;16051;53.024;8.630;2023-03-01T22:48:27;25.13;;;15.43;;
17937;SDS011;16051;53.024;8.630;2023-03-01T22:52:29;23.53;;;15.00;;
17937;SDS011;16051;53.024;8.630;2023-03-01T22:56:33;24.17;;;16.13;;
17937;SDS011;16051;53.024;8.630;2023-03-01T23:00:37;27.17;;;16.40;;
17937;SDS011;16051;53.024;8.630;2023-03-01T23:04:39;27.23;;;15.90;;
17937;SDS011;16051;53.024;8.630;2023-03-01T23:08:43;27.37;;;16.17;;
17937;SDS011;16051;53.024;8.630;2023-03-01T23:12:52;26.10;;;16.07;;
17937;SDS011;16051;53.024;8.630;2023-03-01T23:16:55;24.47;;;15.83;;
17937;SDS011;16051;53.024;8.630;2023-03-01T23:20:59;30.73;;;17.30;;
17937;SDS011;16051;53.024;8.630;2023-03-01T23:25:08;28.03;;;17.37;;
17937;SDS011;16051;53.024;8.630;2023-03-01T23:29:13;26.87;;;15.87;;
17937;SDS011;16051;53.024;8.630;2023-03-01T23:33:16;26.83;;;16.77;;
17937;SDS011;16051;53.024;8.630;2023-03-01T23:41:24;23.33;;;14.03;;
17937;SDS011;16051;53.024;8.630;2023-03-01T23:45:31;25.10;;;16.10;;
17937;SDS011;16051;53.024;8.630;2023-03-01T23:49:36;22.20;;;14.43;;
17937;SDS011;16051;53.024;8.630;2023-03-01T23:53:39;27.63;;;15.90;;
17937;SDS011;16051;53.024;8.630;2023-03-01T23:58:00;29.87;;;15.87;;
